This is the latest recevied weather packets stored in our database for station/object KC1OEK-13. If no packets are shown the sender has not sent any weather packets the latest 10 day(s).
| Time | Temp. | Humidity | Pressure | Rain* | Wind** | Luminosity | Snow |
|---|---|---|---|---|---|---|---|
| 1777612444 | 6.67° C | 80% | 1011.6 hPa | 0 mm | - | 0 W/m² | - |
| 1777612140 | 6.67° C | 81% | 1011.5 hPa | 0 mm | - | 0 W/m² | - |
| 1777611835 | 7.22° C | 80% | 1011.6 hPa | 0 mm | - | 0 W/m² | - |
| 1777611531 | 7.22° C | 78% | 1011.6 hPa | 0 mm | - | 0 W/m² | - |
| 1777611228 | 6.67° C | 79% | 1011.6 hPa | 0 mm | - | 0 W/m² | - |
| 1777610925 | 6.67° C | 83% | 1011.8 hPa | 0 mm | - | 0 W/m² | - |
| 1777610620 | 6.11° C | 84% | 1011.8 hPa | 0 mm | - | 0 W/m² | - |
| 1777610319 | 6.67° C | 83% | 1011.8 hPa | 0 mm | - | 0 W/m² | - |
| 1777610016 | 6.11° C | 83% | 1011.7 hPa | 0 mm | - | 0 W/m² | - |
| 1777609712 | 6.11° C | 83% | 1011.7 hPa | 0 mm | - | 0 W/m² | - |
| 1777609410 | 6.11° C | 82% | 1011.7 hPa | 0 mm | - | 0 W/m² | - |
| 1777609107 | 6.67° C | 82% | 1011.6 hPa | 0 mm | - | 0 W/m² | - |
| 1777608804 | 6.67° C | 80% | 1011.6 hPa | 0 mm | - | 0 W/m² | - |
| 1777608501 | 7.22° C | 77% | 1011.4 hPa | 0 mm | - | 0 W/m² | - |
| 1777608199 | 6.67° C | 80% | 1011.5 hPa | 0 mm | - | 0 W/m² | - |
| 1777607895 | 7.22° C | 77% | 1011.4 hPa | 0 mm | - | 0 W/m² | - |
| 1777607591 | 7.22° C | 77% | 1011.2 hPa | 0 mm | - | 0 W/m² | - |
| 1777607288 | 7.22° C | 78% | 1011.2 hPa | 0 mm | - | 0 W/m² | - |
| 1777606984 | 7.22° C | 78% | 1011 hPa | 0 mm | - | 0 W/m² | - |
| 1777606680 | 7.78° C | 78% | 1011.1 hPa | 0 mm | - | 0 W/m² | - |
| 1777606375 | 7.78° C | 76% | 1010.9 hPa | 0 mm | - | 0 W/m² | - |
| 1777606070 | 7.78° C | 76% | 1010.9 hPa | 0 mm | - | 0 W/m² | - |
| 1777605766 | 7.22° C | 80% | 1010.9 hPa | 0 mm | - | 0 W/m² | - |
| 1777605464 | 7.78° C | 79% | 1011 hPa | 0 mm | - | 0 W/m² | - |
| 1777605162 | 7.78° C | 77% | 1010.9 hPa | 0 mm | - | 0 W/m² | - |
* Rain latest hour (hover to see other rain measurements)
** Current wind speed in m/s (hover to see current wind gust speed)